Time;durP1;ratioP1;P1;durP2;ratioP2;P2;SDS_P1;SDS_P2;PMS_P1;PMS_P2;Temp;Humidity;BMP_temperature;BMP_pressure;BME280_temperature;BME280_humidity;BME280_pressure;Samples;Min_cycle;Max_cycle;Signal;HPM_P1;HPM_P2
2023/01/09 00:00:16;;;;;;;2.15;0.93;;;;;;;5.39;100.00;99407.28;4955036;29;20479;-80
2023/01/09 00:02:43;;;;;;;2.25;1.00;;;;;;;5.37;100.00;99408.28;4955037;29;20387;-81
2023/01/09 00:05:11;;;;;;;1.55;1.00;;;;;;;5.30;100.00;99402.72;4954771;29;20479;-78
2023/01/09 00:07:37;;;;;;;1.95;0.90;;;;;;;5.33;100.00;99409.44;4954787;29;20344;-80
2023/01/09 00:10:03;;;;;;;1.73;0.80;;;;;;;5.16;100.00;99384.91;4955125;29;20034;-79
2023/01/09 00:12:28;;;;;;;3.33;1.23;;;;;;;5.12;100.00;99391.13;4954864;29;20470;-80
2023/01/09 00:14:53;;;;;;;3.28;0.95;;;;;;;5.11;100.00;99397.16;4954757;29;20170;-79
2023/01/09 00:17:19;;;;;;;3.55;0.95;;;;;;;5.08;100.00;99407.59;4954643;29;20384;-80
2023/01/09 00:19:44;;;;;;;3.10;1.00;;;;;;;5.08;100.00;99415.25;4954691;29;20042;-80
2023/01/09 00:22:09;;;;;;;2.35;0.90;;;;;;;4.98;100.00;99422.69;4954789;29;20093;-79
2023/01/09 00:24:35;;;;;;;1.77;1.02;;;;;;;4.79;100.00;99394.88;4954291;28;20039;-81
2023/01/09 00:27:01;;;;;;;1.33;0.90;;;;;;;4.87;100.00;99419.97;4954757;29;20435;-80
2023/01/09 00:29:27;;;;;;;1.65;1.00;;;;;;;4.74;100.00;99412.25;4954629;29;20113;-80
2023/01/09 00:31:52;;;;;;;1.55;0.90;;;;;;;4.68;100.00;99409.25;4954432;29;20075;-79
2023/01/09 00:34:17;;;;;;;4.40;1.05;;;;;;;4.54;100.00;99407.53;4954374;29;20159;-81
2023/01/09 00:36:43;;;;;;;2.30;0.93;;;;;;;4.44;100.00;99393.66;4937165;29;20047;-80
2023/01/09 00:39:08;;;;;;;3.47;0.93;;;;;;;4.60;100.00;99425.03;4954677;29;20074;-80
2023/01/09 00:41:44;;;;;;;3.15;0.98;;;;;;;4.44;100.00;99407.28;4954866;29;21005;-80
2023/01/09 00:44:13;;;;;;;3.30;1.20;;;;;;;4.49;100.00;99417.19;4954510;29;20166;-81
2023/01/09 00:46:44;;;;;;;3.22;1.00;;;;;;;4.31;100.00;99384.16;4954384;29;20019;-80
2023/01/09 00:49:10;;;;;;;1.98;1.48;;;;;;;4.11;100.00;99358.19;4954632;29;20035;-80
2023/01/09 00:51:37;;;;;;;2.00;1.05;;;;;;;4.40;100.00;99421.13;4954662;29;20035;-82
2023/01/09 00:54:03;;;;;;;2.00;1.00;;;;;;;4.29;100.00;99409.00;4954355;29;20493;-81
2023/01/09 00:56:28;;;;;;;4.22;1.30;;;;;;;4.34;100.00;99426.63;4954570;29;20027;-80
2023/01/09 00:58:54;;;;;;;3.08;1.30;;;;;;;4.31;100.00;99422.50;4954539;29;20027;-84
2023/01/09 01:01:20;;;;;;;2.95;1.23;;;;;;;4.02;100.00;99380.78;4954126;29;20024;-79
2023/01/09 01:03:45;;;;;;;2.30;1.10;;;;;;;4.07;100.00;99395.03;4954357;29;20031;-80
2023/01/09 01:08:55;;;;;;;2.30;1.17;;;;;;;4.18;100.00;99433.56;4954845;29;20451;-80
2023/01/09 01:11:21;;;;;;;2.95;1.30;;;;;;;3.93;100.00;99398.38;4936823;29;20027;-80
2023/01/09 01:13:46;;;;;;;2.58;1.15;;;;;;;3.86;100.00;99390.28;4954300;29;20057;-80
2023/01/09 01:16:12;;;;;;;3.13;1.48;;;;;;;4.02;100.00;99420.84;4937011;29;20424;-80
2023/01/09 01:18:38;;;;;;;3.65;1.70;;;;;;;4.09;100.00;99440.00;4954131;29;20050;-81
2023/01/09 01:21:08;;;;;;;7.32;1.73;;;;;;;3.86;100.00;99409.88;4954062;29;20130;-81
2023/01/09 01:23:34;;;;;;;4.57;1.77;;;;;;;3.81;100.00;99406.75;4954355;29;20106;-82
2023/01/09 01:26:08;;;;;;;5.05;1.52;;;;;;;4.00;100.00;99448.22;4954339;29;20055;-80
2023/01/09 01:28:33;;;;;;;5.10;1.70;;;;;;;3.85;100.00;99429.50;4954188;29;20031;-80
2023/01/09 01:30:59;;;;;;;5.00;1.58;;;;;;;3.89;100.00;99430.13;4953996;29;20103;-82
2023/01/09 01:33:25;;;;;;;5.07;1.70;;;;;;;3.98;100.00;99452.59;4954047;29;20368;-81
2023/01/09 01:35:50;;;;;;;3.63;1.40;;;;;;;3.94;100.00;99453.69;4936823;28;20078;-81
2023/01/09 01:38:15;;;;;;;5.25;1.73;;;;;;;3.90;100.00;99450.47;4957911;29;20042;-81
2023/01/09 01:40:40;;;;;;;5.75;1.77;;;;;;;3.79;100.00;99434.94;4957955;29;20078;-81
2023/01/09 01:43:10;;;;;;;5.22;1.60;;;;;;;3.71;100.00;99427.72;4957612;29;20039;-82
2023/01/09 01:45:39;;;;;;;6.43;1.60;;;;;;;3.79;100.00;99445.16;4957436;29;20126;-80
2023/01/09 01:48:31;;;;;;;4.68;1.65;;;;;;;3.74;100.00;99450.53;4957384;29;20542;-82
2023/01/09 01:51:04;;;;;;;4.35;1.60;;;;;;;3.72;100.00;99451.50;4952904;29;20125;-84
2023/01/09 01:53:34;;;;;;;5.47;2.80;;;;;;;3.71;100.00;99465.19;4940619;29;20027;-84
2023/01/09 01:56:05;;;;;;;5.20;1.98;;;;;;;3.69;100.00;99462.72;4957362;29;20038;-85
2023/01/09 01:58:36;;;;;;;8.73;3.63;;;;;;;3.67;100.00;99459.44;4957429;29;20027;-86
2023/01/09 02:01:01;;;;;;;5.03;2.08;;;;;;;3.42;100.00;99424.25;4957489;29;20106;-86
2023/01/09 02:03:28;;;;;;;5.72;2.00;;;;;;;3.66;100.00;99465.47;4957217;29;20472;-83
2023/01/09 02:05:53;;;;;;;6.75;2.40;;;;;;;3.51;100.00;99432.31;4957347;29;20055;-85
2023/01/09 02:08:20;;;;;;;7.13;2.53;;;;;;;3.46;100.00;99427.47;4957372;29;20058;-83
2023/01/09 02:10:46;;;;;;;6.20;2.33;;;;;;;3.41;100.00;99424.34;4957156;29;20110;-82
2023/01/09 02:13:13;;;;;;;6.00;2.40;;;;;;;3.45;100.00;99436.88;4957354;29;20175;-86
2023/01/09 02:16:04;;;;;;;5.82;2.10;;;;;;;3.52;100.00;99460.28;4957073;29;20042;-85
2023/01/09 02:18:30;;;;;;;;;;;;;;;3.58;100.00;99475.28;4957404;29;20024;-86
2023/01/09 02:21:43;;;;;;;8.68;2.30;;;;;;;3.30;100.00;99419.03;4956753;29;19926;-86
2023/01/09 02:24:32;;;;;;;7.38;2.50;;;;;;;3.54;100.00;99466.16;4860719;29;20049;-86
2023/01/09 02:27:19;;;;;;;5.07;2.40;;;;;;;3.53;100.00;99466.22;4860385;29;20124;-86
2023/01/09 02:30:06;;;;;;;5.13;2.30;;;;;;;3.49;100.00;99473.22;4860539;29;20046;-85
2023/01/09 02:32:58;;;;;;;8.10;2.30;;;;;;;3.48;100.00;99469.03;4860172;29;20418;-86
2023/01/09 02:35:28;;;;;;;7.78;2.40;;;;;;;3.46;100.00;99478.53;4805248;29;20201;-86
2023/01/09 02:38:09;;;;;;;7.30;2.40;;;;;;;3.40;100.00;99468.63;4805482;29;20038;-86
2023/01/09 02:40:49;;;;;;;7.03;2.28;;;;;;;3.39;100.00;99470.38;4805579;29;20046;-86
2023/01/09 02:43:14;;;;;;;5.65;2.33;;;;;;;3.34;100.00;99464.72;4805683;29;20118;-84
2023/01/09 02:45:40;;;;;;;4.65;2.20;;;;;;;3.37;100.00;99467.09;4805243;29;20130;-85
2023/01/09 02:48:09;;;;;;;4.32;2.33;;;;;;;3.10;100.00;99426.03;4804570;29;20047;-85
2023/01/09 02:50:48;;;;;;;8.45;2.40;;;;;;;3.35;100.00;99465.53;4805275;29;20041;-85
2023/01/09 02:53:52;;;;;;;9.60;2.72;;;;;;;3.30;100.00;99463.22;4805469;29;20111;-86
2023/01/09 02:56:40;;;;;;;7.72;2.47;;;;;;;3.29;100.00;99459.03;4787210;30;20035;-85
2023/01/09 02:59:23;;;;;;;8.57;2.63;;;;;;;3.02;100.00;99422.25;4788071;29;20239;-85
2023/01/09 03:02:12;;;;;;;9.77;2.60;;;;;;;3.23;100.00;99453.44;4823325;29;20428;-86
2023/01/09 03:04:44;;;;;;;8.40;3.10;;;;;;;3.19;100.00;99449.41;4822982;29;20038;-85
2023/01/09 03:07:11;;;;;;;;;;;;;;;3.17;100.00;99450.31;4808489;29;20099;-86
2023/01/09 03:09:41;;;;;;;7.78;2.60;;;;;;;3.19;100.00;99450.22;4822936;29;20301;-83
2023/01/09 03:12:16;;;;;;;6.85;2.30;;;;;;;3.14;100.00;99449.66;4848719;29;20066;-81
2023/01/09 03:14:48;;;;;;;6.32;2.40;;;;;;;2.87;100.00;99416.28;4878347;29;20049;-84
2023/01/09 03:17:21;;;;;;;7.28;2.50;;;;;;;3.09;100.00;99454.19;4878309;29;20106;-79
2023/01/09 03:19:49;;;;;;;5.65;2.85;;;;;;;2.71;100.00;99390.78;4877993;29;20100;-80
2023/01/09 03:22:15;;;;;;;7.60;2.28;;;;;;;3.03;100.00;99452.78;4878091;29;20441;-80
2023/01/09 03:24:40;;;;;;;7.00;2.45;;;;;;;2.58;100.00;99392.34;4878135;29;20033;-79
2023/01/09 03:27:07;;;;;;;5.75;2.10;;;;;;;2.78;100.00;99427.78;4918989;29;20055;-79
2023/01/09 03:29:32;;;;;;;6.13;2.13;;;;;;;2.99;100.00;99464.06;4955884;29;20019;-79
2023/01/09 03:31:58;;;;;;;8.95;2.83;;;;;;;2.69;100.00;99414.72;4955881;29;20376;-78
2023/01/09 03:34:23;;;;;;;9.70;2.63;;;;;;;2.85;100.00;99452.06;4955437;29;20036;-79
2023/01/09 03:36:48;;;;;;;5.90;2.63;;;;;;;2.81;100.00;99435.25;4955481;29;20034;-79
2023/01/09 03:39:14;;;;;;;6.18;2.33;;;;;;;2.84;100.00;99431.72;4938895;29;20047;-80
2023/01/09 03:41:39;;;;;;;7.93;2.90;;;;;;;2.74;100.00;99411.00;4938294;29;20034;-80
2023/01/09 03:44:04;;;;;;;7.00;2.88;;;;;;;3.00;100.00;99452.13;4955605;29;20380;-79
2023/01/09 03:46:30;;;;;;;5.88;2.60;;;;;;;2.81;100.00;99425.06;4955486;29;20023;-80
2023/01/09 03:48:55;;;;;;;8.77;2.70;;;;;;;2.98;100.00;99464.97;4955275;29;20035;-79
2023/01/09 03:51:20;;;;;;;9.32;2.83;;;;;;;3.00;100.00;99465.69;4955322;29;20052;-79
2023/01/09 03:53:46;;;;;;;11.25;3.42;;;;;;;3.04;100.00;99454.41;4955290;29;20027;-79
2023/01/09 03:56:11;;;;;;;7.40;3.17;;;;;;;2.95;100.00;99442.19;4955349;29;20031;-80
2023/01/09 03:58:36;;;;;;;9.50;2.80;;;;;;;3.12;100.00;99444.63;4955144;29;20028;-78
2023/01/09 04:01:04;;;;;;;11.38;3.03;;;;;;;3.30;100.00;99460.66;4954649;28;20068;-79
2023/01/09 04:03:30;;;;;;;9.55;2.97;;;;;;;3.40;100.00;99460.97;4954897;29;20023;-80
2023/01/09 04:05:55;;;;;;;12.93;3.20;;;;;;;3.46;100.00;99455.56;4955151;29;20041;-79
2023/01/09 04:08:21;;;;;;;10.25;3.00;;;;;;;3.41;100.00;99448.13;4954936;29;20094;-79
2023/01/09 04:10:48;;;;;;;9.60;3.55;;;;;;;3.46;100.00;99447.91;4955376;29;20023;-80
2023/01/09 04:13:14;;;;;;;9.05;2.45;;;;;;;3.22;100.00;99405.88;4955205;29;20050;-78
2023/01/09 04:15:39;;;;;;;7.88;2.67;;;;;;;3.22;100.00;99410.97;4955034;29;20483;-80
2023/01/09 04:18:05;;;;;;;6.95;2.50;;;;;;;3.31;100.00;99447.00;4954769;29;20038;-80
2023/01/09 04:20:30;;;;;;;6.88;2.40;;;;;;;3.35;100.00;99443.38;4954641;29;20051;-79
2023/01/09 04:22:56;;;;;;;10.25;2.90;;;;;;;3.21;100.00;99416.97;4954775;29;20027;-81
2023/01/09 04:25:21;;;;;;;8.63;2.53;;;;;;;3.45;100.00;99453.91;4954775;29;20054;-79
2023/01/09 04:27:47;;;;;;;9.98;2.55;;;;;;;3.49;100.00;99450.28;4937389;29;20090;-79
2023/01/09 04:30:13;;;;;;;8.07;2.97;;;;;;;3.21;100.00;99388.91;4937640;29;20031;-80
2023/01/09 04:32:38;;;;;;;9.60;2.88;;;;;;;3.69;100.00;99444.88;4954423;29;20066;-80
2023/01/09 04:35:04;;;;;;;9.48;2.72;;;;;;;3.81;100.00;99462.94;4954440;29;20130;-79
2023/01/09 04:37:29;;;;;;;8.77;3.10;;;;;;;3.91;100.00;99454.66;4954508;29;20106;-79
2023/01/09 04:39:55;;;;;;;7.97;2.40;;;;;;;4.02;100.00;99456.59;4954612;29;20031;-79
2023/01/09 04:42:21;;;;;;;7.18;2.40;;;;;;;4.10;100.00;99456.16;4954634;29;20459;-78
2023/01/09 04:44:46;;;;;;;11.15;2.92;;;;;;;4.16;100.00;99448.97;4954924;29;20038;-79
2023/01/09 04:47:12;;;;;;;8.88;2.45;;;;;;;4.23;100.00;99455.38;4954497;29;20027;-80
2023/01/09 04:49:38;;;;;;;7.95;2.67;;;;;;;4.25;100.00;99451.00;4954433;29;20127;-79
2023/01/09 04:52:04;;;;;;;12.10;3.42;;;;;;;4.28;100.00;99440.56;4954499;29;20111;-81
2023/01/09 04:54:29;;;;;;;7.88;2.47;;;;;;;4.34;100.00;99451.38;4954424;29;20035;-78
2023/01/09 04:56:54;;;;;;;6.75;2.22;;;;;;;4.36;100.00;99446.97;4954725;29;20199;-80
2023/01/09 04:59:20;;;;;;;6.05;2.30;;;;;;;4.40;100.00;99446.69;4954436;29;20031;-80
2023/01/09 05:01:45;;;;;;;5.90;2.25;;;;;;;4.46;100.00;99448.06;4954548;29;20078;-79
2023/01/09 05:04:11;;;;;;;7.78;2.38;;;;;;;4.34;100.00;99423.25;4954608;29;20391;-80
2023/01/09 05:06:37;;;;;;;7.18;2.10;;;;;;;4.53;100.00;99442.50;4954271;29;20391;-80
2023/01/09 05:09:03;;;;;;;7.85;2.47;;;;;;;4.52;100.00;99438.31;4954502;29;20159;-80
2023/01/09 05:11:28;;;;;;;7.63;2.35;;;;;;;4.61;100.00;99440.28;4955619;28;20498;-79
2023/01/09 05:13:53;;;;;;;6.85;2.17;;;;;;;4.65;100.00;99453.72;4958123;29;20376;-80
2023/01/09 05:16:20;;;;;;;7.75;2.00;;;;;;;4.67;100.00;99445.94;4958184;29;20031;-79
2023/01/09 05:18:45;;;;;;;9.02;2.33;;;;;;;4.68;100.00;99443.31;4958392;29;20488;-80
2023/01/09 05:21:10;;;;;;;8.40;2.45;;;;;;;4.69;100.00;99442.38;4957734;29;20077;-80
2023/01/09 05:23:36;;;;;;;7.28;2.28;;;;;;;4.55;100.00;99427.88;4957942;29;20023;-81
2023/01/09 05:26:03;;;;;;;12.15;2.50;;;;;;;4.74;100.00;99445.50;4940099;29;20071;-80
2023/01/09 05:28:29;;;;;;;8.57;2.22;;;;;;;4.54;100.00;99410.09;4958091;29;20031;-78
2023/01/09 05:30:54;;;;;;;11.98;2.88;;;;;;;4.75;100.00;99441.19;4958215;29;20027;-80
2023/01/09 05:33:19;;;;;;;7.60;2.50;;;;;;;4.83;100.00;99441.56;4958070;29;20031;-80
2023/01/09 05:35:44;;;;;;;10.65;3.35;;;;;;;4.83;100.00;99441.56;4957769;29;20059;-79
2023/01/09 05:38:10;;;;;;;10.23;2.80;;;;;;;4.74;100.00;99412.25;4957861;29;20027;-78
2023/01/09 05:40:35;;;;;;;8.73;2.47;;;;;;;4.70;100.00;99402.28;4940177;29;20085;-78
2023/01/09 05:43:01;;;;;;;9.52;2.40;;;;;;;4.72;100.00;99403.84;4957479;29;20502;-80
2023/01/09 05:45:26;;;;;;;9.15;2.78;;;;;;;4.97;100.00;99446.63;4957657;29;20038;-84
2023/01/09 05:47:52;;;;;;;10.55;2.22;;;;;;;4.93;100.00;99436.69;4957716;29;20051;-85
2023/01/09 05:50:17;;;;;;;15.13;3.13;;;;;;;4.82;100.00;99416.91;4957718;29;20042;-86
2023/01/09 05:52:43;;;;;;;8.35;2.33;;;;;;;5.05;100.00;99441.03;4957675;29;20546;-86
2023/01/09 05:55:09;;;;;;;7.70;1.85;;;;;;;5.07;100.00;99441.75;4957469;29;20031;-86
2023/01/09 05:57:35;;;;;;;10.30;2.20;;;;;;;5.09;100.00;99437.38;4957152;29;20023;-86
2023/01/09 06:00:00;;;;;;;11.20;3.03;;;;;;;5.10;100.00;99439.81;4957586;29;20024;-86
2023/01/09 06:02:25;;;;;;;8.90;2.22;;;;;;;5.09;100.00;99445.84;4957580;29;20451;-85
2023/01/09 06:04:51;;;;;;;9.10;2.33;;;;;;;5.01;100.00;99419.09;4957674;29;20023;-86
2023/01/09 06:07:16;;;;;;;13.13;3.40;;;;;;;5.07;100.00;99424.69;4957365;29;20109;-85
2023/01/09 06:09:41;;;;;;;9.88;2.42;;;;;;;5.11;100.00;99438.09;4957233;29;20535;-83
2023/01/09 06:12:07;;;;;;;8.45;2.92;;;;;;;4.96;100.00;99406.63;4957050;29;20110;-79
2023/01/09 06:14:32;;;;;;;8.77;2.10;;;;;;;5.12;100.00;99432.06;4957001;29;20126;-80
2023/01/09 06:16:58;;;;;;;8.20;1.80;;;;;;;5.12;100.00;99442.31;4957217;29;20066;-80
2023/01/09 06:19:23;;;;;;;8.60;2.40;;;;;;;4.99;100.00;99420.94;4957005;29;20058;-81
2023/01/09 06:21:48;;;;;;;11.88;2.40;;;;;;;5.08;100.00;99428.88;4956722;29;20054;-85
2023/01/09 06:24:14;;;;;;;7.35;2.30;;;;;;;5.09;100.00;99429.69;4956080;28;20043;-81
2023/01/09 06:26:39;;;;;;;9.63;2.17;;;;;;;5.11;100.00;99420.16;4939330;29;20046;-80
2023/01/09 06:29:04;;;;;;;9.52;2.40;;;;;;;5.13;100.00;99429.41;4956773;29;20423;-81
2023/01/09 06:31:30;;;;;;;10.73;2.20;;;;;;;5.17;100.00;99427.47;4956750;29;20023;-81
2023/01/09 06:33:55;;;;;;;10.18;2.15;;;;;;;5.18;100.00;99422.25;4939169;29;20062;-80
2023/01/09 06:36:21;;;;;;;9.18;3.03;;;;;;;5.21;100.00;99431.50;4956620;29;20049;-81
2023/01/09 06:38:46;;;;;;;8.15;2.30;;;;;;;5.21;100.00;99425.53;4956898;29;20039;-80
2023/01/09 06:41:11;;;;;;;11.48;2.20;;;;;;;5.26;100.00;99418.41;4956675;29;20372;-82
2023/01/09 06:43:37;;;;;;;9.30;2.40;;;;;;;5.32;100.00;99423.97;4956651;29;20051;-80
2023/01/09 06:46:04;;;;;;;10.43;2.25;;;;;;;5.28;100.00;99407.13;4956484;29;20062;-84
2023/01/09 06:48:30;;;;;;;10.27;2.72;;;;;;;5.24;100.00;99405.72;4956608;29;20078;-81
2023/01/09 06:50:56;;;;;;;12.48;3.05;;;;;;;5.31;100.00;99409.53;4956618;29;20484;-82
2023/01/09 06:53:21;;;;;;;11.60;2.38;;;;;;;5.46;100.00;99426.44;4956225;29;20034;-78
2023/01/09 06:55:46;;;;;;;7.65;2.10;;;;;;;5.32;100.00;99402.66;4956538;29;20073;-80
2023/01/09 06:58:12;;;;;;;8.85;2.33;;;;;;;5.54;100.00;99432.81;4956278;29;20086;-81
2023/01/09 07:00:37;;;;;;;9.98;2.65;;;;;;;5.55;100.00;99437.03;4956167;29;20554;-83
2023/01/09 07:03:04;;;;;;;11.10;2.13;;;;;;;5.56;100.00;99446.34;4956412;29;20031;-82
2023/01/09 07:05:30;;;;;;;14.48;4.15;;;;;;;5.29;100.00;99400.28;4956358;29;20034;-82
2023/01/09 07:07:55;;;;;;;7.95;2.72;;;;;;;5.48;100.00;99437.41;4955956;29;20027;-84
2023/01/09 07:10:21;;;;;;;10.27;2.53;;;;;;;5.38;100.00;99430.41;4938496;29;20042;-83
2023/01/09 07:12:47;;;;;;;12.07;3.00;;;;;;;5.35;100.00;99436.56;4956206;29;20085;-80
2023/01/09 07:15:13;;;;;;;12.43;2.28;;;;;;;5.42;100.00;99442.94;4955968;29;20027;-81
2023/01/09 07:17:38;;;;;;;12.57;2.30;;;;;;;5.41;100.00;99438.75;4938106;29;20387;-83
2023/01/09 07:20:04;;;;;;;7.30;2.10;;;;;;;5.21;100.00;99405.06;4955979;29;20031;-81
2023/01/09 07:22:29;;;;;;;11.02;2.55;;;;;;;5.44;100.00;99453.88;4955346;29;20106;-83
2023/01/09 07:24:54;;;;;;;13.88;2.80;;;;;;;5.14;100.00;99394.41;4955896;29;20396;-82
2023/01/09 07:27:21;;;;;;;9.55;2.50;;;;;;;5.12;100.00;99393.69;4955990;29;20027;-80
2023/01/09 07:29:46;;;;;;;11.23;2.65;;;;;;;5.55;100.00;99462.63;4955917;29;20491;-81
2023/01/09 07:32:11;;;;;;;7.30;2.63;;;;;;;5.55;100.00;99472.88;4955700;29;20043;-84
2023/01/09 07:34:37;;;;;;;7.18;2.28;;;;;;;5.46;100.00;99469.16;4955475;28;20607;-82
2023/01/09 07:37:02;;;;;;;10.43;2.25;;;;;;;5.47;100.00;99479.28;4955679;29;20033;-80
2023/01/09 07:39:27;;;;;;;9.75;2.67;;;;;;;5.38;100.00;99471.38;4955837;29;20043;-79
2023/01/09 07:41:53;;;;;;;8.50;2.67;;;;;;;5.11;100.00;99438.09;4955665;29;20391;-78
2023/01/09 07:44:18;;;;;;;8.88;2.85;;;;;;;5.38;100.00;99492.66;4938458;29;20376;-79
2023/01/09 07:46:44;;;;;;;11.00;3.10;;;;;;;5.34;100.00;99495.53;4937897;29;20043;-81
2023/01/09 07:49:09;;;;;;;10.07;2.70;;;;;;;5.10;100.00;99470.53;4955227;29;20020;-78
2023/01/09 07:51:34;;;;;;;9.43;3.05;;;;;;;5.18;100.00;99485.41;4955437;29;20376;-79
2023/01/09 07:54:00;;;;;;;12.13;3.40;;;;;;;5.20;100.00;99496.38;4955095;29;20055;-78
2023/01/09 07:56:25;;;;;;;13.43;3.90;;;;;;;5.26;100.00;99506.25;4955429;29;20103;-75
2023/01/09 07:58:50;;;;;;;11.77;3.58;;;;;;;5.27;100.00;99505.31;4955405;29;20043;-79
2023/01/09 08:01:16;;;;;;;7.57;3.13;;;;;;;5.27;100.00;99507.88;4955274;29;20467;-80
2023/01/09 08:03:41;;;;;;;10.23;3.50;;;;;;;5.25;100.00;99507.16;4954908;29;20031;-78
2023/01/09 08:06:07;;;;;;;14.55;4.07;;;;;;;5.26;100.00;99510.53;4955239;29;20035;-79
2023/01/09 08:08:32;;;;;;;12.45;3.65;;;;;;;5.26;100.00;99508.78;4954960;29;20158;-79
2023/01/09 08:10:57;;;;;;;10.93;3.42;;;;;;;5.27;100.00;99517.28;4938056;29;20031;-79
2023/01/09 08:13:23;;;;;;;9.68;4.15;;;;;;;5.26;100.00;99516.47;4955110;29;20074;-79
2023/01/09 08:15:48;;;;;;;9.13;3.67;;;;;;;5.33;100.00;99524.59;4937487;29;20149;-79
2023/01/09 08:18:13;;;;;;;10.32;3.65;;;;;;;5.14;100.00;99492.47;4954779;29;20050;-80
2023/01/09 08:20:39;;;;;;;15.35;4.22;;;;;;;5.12;100.00;99501.97;4950494;29;20048;-76
2023/01/09 08:23:04;;;;;;;13.10;4.35;;;;;;;5.42;100.00;99545.34;4936129;29;20024;-77
2023/01/09 08:25:29;;;;;;;13.23;4.30;;;;;;;5.21;100.00;99520.22;4936253;29;20028;-76
2023/01/09 08:27:54;;;;;;;9.32;3.95;;;;;;;5.43;100.00;99553.84;4935638;29;20028;-79
2023/01/09 08:30:20;;;;;;;11.43;4.05;;;;;;;5.22;100.00;99529.56;4918867;29;20028;-77
2023/01/09 08:32:50;;;;;;;11.93;3.90;;;;;;;5.01;100.00;99501.78;4935670;29;20040;-77
2023/01/09 08:35:16;;;;;;;15.55;4.53;;;;;;;5.18;100.00;99524.63;4935318;29;20034;-77
2023/01/09 08:37:46;;;;;;;12.52;4.32;;;;;;;5.59;100.00;99574.16;4935356;29;20028;-79
2023/01/09 08:40:13;;;;;;;11.00;4.70;;;;;;;5.56;100.00;99556.44;4935544;29;20116;-76
2023/01/09 08:48:06;;;;;;;11.50;4.13;;;;;;;5.78;100.00;99578.97;4935656;29;20527;-76
2023/01/09 08:50:32;;;;;;;11.65;4.38;;;;;;;5.67;100.00;99566.84;4935743;29;20024;-76
2023/01/09 08:52:57;;;;;;;9.80;4.30;;;;;;;5.76;100.00;99594.44;4918178;29;20046;-79
2023/01/09 08:55:22;;;;;;;10.10;4.65;;;;;;;5.92;100.00;99628.47;4934671;29;20032;-77
2023/01/09 08:57:53;;;;;;;13.38;4.68;;;;;;;5.94;100.00;99618.13;4919168;29;20024;-78
2023/01/09 09:02:56;;;;;;;12.50;4.90;;;;;;;5.87;100.00;99620.19;4952985;29;20063;-80
2023/01/09 09:05:23;;;;;;;13.43;5.38;;;;;;;5.84;100.00;99615.28;4954570;28;20028;-79
2023/01/09 09:07:49;;;;;;;12.88;5.50;;;;;;;5.92;100.00;99635.31;4954442;29;20493;-81
2023/01/09 09:10:16;;;;;;;8.95;5.15;;;;;;;5.74;100.00;99620.16;4954453;28;20027;-76
2023/01/09 09:12:43;;;;;;;12.57;5.32;;;;;;;5.72;100.00;99613.47;4954337;29;20490;-79
2023/01/09 09:15:15;;;;;;;13.68;6.20;;;;;;;5.70;100.00;99613.59;4954218;29;20031;-77
2023/01/09 09:17:41;;;;;;;14.35;6.32;;;;;;;5.86;100.00;99646.75;4954460;28;20039;-78
2023/01/09 09:20:08;;;;;;;12.82;6.75;;;;;;;5.73;100.00;99613.38;4954263;29;20031;-79
2023/01/09 09:22:34;;;;;;;13.68;7.25;;;;;;;5.86;100.00;99639.06;4954062;28;20110;-77
2023/01/09 09:24:59;;;;;;;12.43;6.80;;;;;;;6.04;100.00;99670.44;4953873;29;20071;-78
2023/01/09 09:27:25;;;;;;;12.27;6.45;;;;;;;6.07;100.00;99665.09;4953876;29;20486;-78
2023/01/09 09:29:50;;;;;;;12.85;6.18;;;;;;;5.89;100.00;99646.53;4953886;28;20035;-76
2023/01/09 09:32:15;;;;;;;11.68;5.97;;;;;;;6.09;100.00;99670.94;4936418;29;20035;-77
2023/01/09 09:34:41;;;;;;;12.57;6.47;;;;;;;6.01;100.00;99668.06;4954198;28;20031;-78
2023/01/09 09:37:06;;;;;;;13.85;6.90;;;;;;;6.11;100.00;99689.63;4954269;29;20019;-77
2023/01/09 09:39:32;;;;;;;14.95;6.30;;;;;;;6.02;100.00;99682.53;4954065;29;20023;-78
2023/01/09 09:45:09;;;;;;;12.93;5.40;;;;;;;6.08;100.00;99712.06;4954256;28;20114;-77
2023/01/09 09:48:04;;;;;;;11.13;6.05;;;;;;;6.00;100.00;99718.50;4936600;29;20573;-79
2023/01/09 09:50:55;;;;;;;13.05;5.63;;;;;;;5.94;100.00;99715.47;4954213;29;20106;-77
2023/01/09 09:53:23;;;;;;;13.55;5.72;;;;;;;5.80;100.00;99700.06;4954201;29;20111;-78
2023/01/09 09:55:49;;;;;;;13.10;6.82;;;;;;;5.93;100.00;99721.53;4953608;28;20387;-78
2023/01/09 09:58:35;;;;;;;16.10;6.95;;;;;;;5.77;100.00;99683.16;4955111;28;20534;-77
2023/01/09 10:01:01;;;;;;;15.35;6.65;;;;;;;6.18;100.00;99747.25;4957462;28;20054;-78
2023/01/09 10:03:40;;;;;;;13.40;6.53;;;;;;;6.17;100.00;99729.41;4957283;28;20040;-79
2023/01/09 10:06:16;;;;;;;16.45;6.50;;;;;;;6.30;100.00;99753.41;4957636;29;20379;-77
2023/01/09 10:09:19;;;;;;;16.65;8.07;;;;;;;6.44;100.00;99763.59;4957353;28;20023;-77
2023/01/09 10:12:07;;;;;;;15.35;6.45;;;;;;;6.52;100.00;99768.25;4957141;28;20443;-76
2023/01/09 10:14:32;;;;;;;12.73;6.10;;;;;;;6.53;100.00;99764.75;4957127;29;20463;-76
2023/01/09 10:17:33;;;;;;;12.70;6.85;;;;;;;6.75;100.00;99777.88;4957236;28;20034;-76
2023/01/09 10:20:08;;;;;;;12.35;6.80;;;;;;;6.74;100.00;99783.91;4957086;28;20034;-77
2023/01/09 10:23:04;;;;;;;13.73;6.32;;;;;;;6.76;100.00;99787.22;4957155;29;20054;-79
2023/01/09 10:25:44;;;;;;;12.85;6.10;;;;;;;6.75;100.00;99784.75;4956799;28;20058;-78
2023/01/09 10:28:21;;;;;;;10.50;5.50;;;;;;;6.63;100.00;99783.78;4939803;29;20023;-78
2023/01/09 10:30:57;;;;;;;11.95;5.70;;;;;;;6.44;100.00;99773.84;4956937;28;20024;-77
2023/01/09 10:33:35;;;;;;;11.65;5.60;;;;;;;6.50;100.00;99795.75;4957060;29;20485;-82
2023/01/09 10:36:44;;;;;;;13.68;6.00;;;;;;;6.35;100.00;99753.09;4956872;28;20524;-78
2023/01/09 10:39:16;;;;;;;10.85;5.95;;;;;;;6.69;100.00;99782.59;4860217;29;20056;-81
2023/01/09 10:42:14;;;;;;;11.77;5.80;;;;;;;6.81;100.00;99808.28;4860030;29;20049;-82
2023/01/09 10:45:00;;;;;;;12.55;5.65;;;;;;;6.86;100.00;99806.22;4787538;30;20116;-81
2023/01/09 10:47:31;;;;;;;12.15;5.68;;;;;;;6.94;100.00;99800.59;4787396;30;20079;-85
2023/01/09 10:49:58;;;;;;;12.48;6.45;;;;;;;7.09;100.00;99809.91;4787430;30;20047;-76
2023/01/09 10:52:35;;;;;;;11.93;5.97;;;;;;;7.19;100.00;99805.00;4787431;30;20391;-77
2023/01/09 10:55:16;;;;;;;13.35;6.13;;;;;;;7.18;100.00;99811.06;4787136;30;20046;-77
2023/01/09 10:57:43;;;;;;;12.40;6.70;;;;;;;7.17;100.00;99814.50;4787281;30;20437;-77
2023/01/09 11:00:20;;;;;;;10.98;5.72;;;;;;;7.09;100.00;99806.50;4787243;30;20501;-81
2023/01/09 11:02:46;;;;;;;12.18;5.95;;;;;;;7.12;100.00;99825.09;4787121;30;20055;-79
2023/01/09 11:05:17;;;;;;;10.75;5.63;;;;;;;7.04;100.00;99821.38;4772355;30;20032;-77
2023/01/09 11:07:46;;;;;;;16.85;6.22;;;;;;;6.87;100.00;99797.59;4770095;30;20191;-78
2023/01/09 11:10:13;;;;;;;10.57;5.40;;;;;;;6.93;100.00;99813.53;4768627;30;20032;-75
2023/01/09 11:12:39;;;;;;;11.10;5.97;;;;;;;6.93;100.00;99813.53;4769017;30;20039;-76
2023/01/09 11:15:18;;;;;;;14.73;6.80;;;;;;;7.15;100.00;99835.16;4803456;29;20046;-76
2023/01/09 11:17:44;;;;;;;12.23;6.30;;;;;;;7.19;100.00;99834.06;4823136;29;20030;-76
2023/01/09 11:20:22;;;;;;;16.70;6.20;;;;;;;7.21;100.00;99838.25;4840795;29;20043;-77
2023/01/09 11:22:53;;;;;;;14.30;6.60;;;;;;;7.13;100.00;99849.03;4936877;29;20387;-77
2023/01/09 11:25:21;;;;;;;14.65;7.35;;;;;;;6.92;100.00;99825.56;4919396;29;20031;-77
2023/01/09 11:28:02;;;;;;;17.05;7.63;;;;;;;7.10;100.00;99851.81;4936977;29;20102;-78
2023/01/09 11:30:29;;;;;;;13.38;7.13;;;;;;;7.12;100.00;99853.34;4936708;29;20032;-79
2023/01/09 11:32:56;;;;;;;12.88;7.15;;;;;;;7.04;100.00;99850.44;4936523;29;20023;-80
2023/01/09 11:35:30;;;;;;;14.50;7.50;;;;;;;7.14;100.00;99853.22;4936826;29;20404;-78
2023/01/09 11:38:06;;;;;;;10.77;6.10;;;;;;;7.21;100.00;99840.84;4936404;29;20032;-77
2023/01/09 11:40:55;;;;;;;14.57;6.97;;;;;;;7.31;100.00;99847.03;4936316;29;20554;-80
2023/01/09 11:43:35;;;;;;;14.63;6.72;;;;;;;7.11;100.00;99820.88;4936613;29;20031;-79
2023/01/09 11:46:04;;;;;;;15.38;7.65;;;;;;;7.29;100.00;99865.09;4919330;29;20107;-76
2023/01/09 11:48:37;;;;;;;13.65;6.30;;;;;;;7.33;100.00;99870.84;4936220;29;20054;-78
2023/01/09 11:51:21;;;;;;;12.50;5.82;;;;;;;7.07;100.00;99816.84;4936434;29;20078;-79